sensor_id;sensor_type;location;lat;lon;timestamp;P1;durP1;ratioP1;P2;durP2;ratioP2
19927;SDS011;10126;50.876;4.470;2022-09-20T00:01:02;0.20;;;0.20;;
19927;SDS011;10126;50.876;4.470;2022-09-20T00:03:05;0.10;;;0.10;;
19927;SDS011;10126;50.876;4.470;2022-09-20T00:05:06;0.20;;;0.20;;
19927;SDS011;10126;50.876;4.470;2022-09-20T00:07:07;0.20;;;0.20;;
19927;SDS011;10126;50.876;4.470;2022-09-20T00:09:08;0.20;;;0.20;;
19927;SDS011;10126;50.876;4.470;2022-09-20T00:11:10;0.20;;;0.20;;
19927;SDS011;10126;50.876;4.470;2022-09-20T00:13:13;0.30;;;0.30;;
19927;SDS011;10126;50.876;4.470;2022-09-20T00:15:14;0.20;;;0.20;;
19927;SDS011;10126;50.876;4.470;2022-09-20T00:17:14;0.20;;;0.20;;
19927;SDS011;10126;50.876;4.470;2022-09-20T00:19:16;0.30;;;0.30;;
19927;SDS011;10126;50.876;4.470;2022-09-20T00:21:19;0.20;;;0.20;;
19927;SDS011;10126;50.876;4.470;2022-09-20T00:23:22;0.13;;;0.13;;
19927;SDS011;10126;50.876;4.470;2022-09-20T00:25:23;0.20;;;0.20;;
19927;SDS011;10126;50.876;4.470;2022-09-20T00:27:23;0.27;;;0.27;;
19927;SDS011;10126;50.876;4.470;2022-09-20T00:29:24;0.20;;;0.20;;
19927;SDS011;10126;50.876;4.470;2022-09-20T00:31:25;0.20;;;0.20;;
19927;SDS011;10126;50.876;4.470;2022-09-20T00:33:26;0.20;;;0.20;;
19927;SDS011;10126;50.876;4.470;2022-09-20T00:35:45;0.20;;;0.20;;
19927;SDS011;10126;50.876;4.470;2022-09-20T00:37:46;0.30;;;0.30;;
19927;SDS011;10126;50.876;4.470;2022-09-20T00:39:47;0.10;;;0.10;;
19927;SDS011;10126;50.876;4.470;2022-09-20T00:41:48;0.20;;;0.20;;
19927;SDS011;10126;50.876;4.470;2022-09-20T00:43:48;0.20;;;0.20;;
19927;SDS011;10126;50.876;4.470;2022-09-20T00:45:49;0.30;;;0.30;;
19927;SDS011;10126;50.876;4.470;2022-09-20T00:47:52;0.20;;;0.20;;
19927;SDS011;10126;50.876;4.470;2022-09-20T00:52:25;0.30;;;0.30;;
19927;SDS011;10126;50.876;4.470;2022-09-20T00:54:26;0.20;;;0.20;;
19927;SDS011;10126;50.876;4.470;2022-09-20T00:56:30;0.20;;;0.20;;
19927;SDS011;10126;50.876;4.470;2022-09-20T00:58:35;0.20;;;0.20;;
19927;SDS011;10126;50.876;4.470;2022-09-20T01:00:42;0.20;;;0.20;;
19927;SDS011;10126;50.876;4.470;2022-09-20T01:02:47;0.20;;;0.20;;
19927;SDS011;10126;50.876;4.470;2022-09-20T01:04:51;0.20;;;0.20;;
19927;SDS011;10126;50.876;4.470;2022-09-20T01:06:52;0.20;;;0.20;;
19927;SDS011;10126;50.876;4.470;2022-09-20T01:08:56;0.20;;;0.20;;
19927;SDS011;10126;50.876;4.470;2022-09-20T01:11:01;0.20;;;0.20;;
19927;SDS011;10126;50.876;4.470;2022-09-20T01:13:01;0.30;;;0.30;;
19927;SDS011;10126;50.876;4.470;2022-09-20T01:15:05;0.20;;;0.20;;
19927;SDS011;10126;50.876;4.470;2022-09-20T01:17:08;0.20;;;0.20;;
19927;SDS011;10126;50.876;4.470;2022-09-20T01:21:41;0.30;;;0.30;;
19927;SDS011;10126;50.876;4.470;2022-09-20T01:28:22;0.30;;;0.30;;
19927;SDS011;10126;50.876;4.470;2022-09-20T01:30:25;0.20;;;0.20;;
19927;SDS011;10126;50.876;4.470;2022-09-20T01:32:40;0.20;;;0.20;;
19927;SDS011;10126;50.876;4.470;2022-09-20T01:34:53;0.20;;;0.20;;
19927;SDS011;10126;50.876;4.470;2022-09-20T01:41:34;0.30;;;0.30;;
19927;SDS011;10126;50.876;4.470;2022-09-20T01:44:04;0.20;;;0.20;;
19927;SDS011;10126;50.876;4.470;2022-09-20T01:46:20;0.20;;;0.20;;
19927;SDS011;10126;50.876;4.470;2022-09-20T02:00:14;0.20;;;0.20;;
19927;SDS011;10126;50.876;4.470;2022-09-20T02:06:59;0.20;;;0.20;;
19927;SDS011;10126;50.876;4.470;2022-09-20T02:09:30;0.20;;;0.20;;
19927;SDS011;10126;50.876;4.470;2022-09-20T02:16:43;0.20;;;0.20;;
19927;SDS011;10126;50.876;4.470;2022-09-20T02:19:04;0.20;;;0.20;;
19927;SDS011;10126;50.876;4.470;2022-09-20T02:29:00;0.20;;;0.20;;
19927;SDS011;10126;50.876;4.470;2022-09-20T02:31:26;0.20;;;0.20;;
19927;SDS011;10126;50.876;4.470;2022-09-20T02:46:52;0.20;;;0.20;;
19927;SDS011;10126;50.876;4.470;2022-09-20T02:49:17;0.20;;;0.20;;
19927;SDS011;10126;50.876;4.470;2022-09-20T02:54:00;0.20;;;0.20;;
19927;SDS011;10126;50.876;4.470;2022-09-20T02:56:40;0.20;;;0.20;;
19927;SDS011;10126;50.876;4.470;2022-09-20T03:00:53;0.13;;;0.13;;
19927;SDS011;10126;50.876;4.470;2022-09-20T03:03:22;0.20;;;0.20;;
19927;SDS011;10126;50.876;4.470;2022-09-20T03:10:28;0.20;;;0.20;;
19927;SDS011;10126;50.876;4.470;2022-09-20T03:15:03;0.20;;;0.20;;
19927;SDS011;10126;50.876;4.470;2022-09-20T03:17:38;0.20;;;0.20;;
19927;SDS011;10126;50.876;4.470;2022-09-20T03:19:59;0.20;;;0.20;;
19927;SDS011;10126;50.876;4.470;2022-09-20T03:28:58;0.20;;;0.20;;
19927;SDS011;10126;50.876;4.470;2022-09-20T03:36:00;0.30;;;0.30;;
19927;SDS011;10126;50.876;4.470;2022-09-20T03:53:20;0.30;;;0.30;;
19927;SDS011;10126;50.876;4.470;2022-09-20T04:10:40;0.20;;;0.20;;
19927;SDS011;10126;50.876;4.470;2022-09-20T04:13:24;0.20;;;0.20;;
19927;SDS011;10126;50.876;4.470;2022-09-20T04:15:36;0.20;;;0.20;;
19927;SDS011;10126;50.876;4.470;2022-09-20T04:17:59;0.20;;;0.20;;
19927;SDS011;10126;50.876;4.470;2022-09-20T04:22:19;0.30;;;0.30;;
19927;SDS011;10126;50.876;4.470;2022-09-20T04:24:24;0.20;;;0.20;;
19927;SDS011;10126;50.876;4.470;2022-09-20T04:26:50;0.23;;;0.23;;
19927;SDS011;10126;50.876;4.470;2022-09-20T04:31:28;0.30;;;0.30;;
19927;SDS011;10126;50.876;4.470;2022-09-20T04:33:35;0.20;;;0.20;;
19927;SDS011;10126;50.876;4.470;2022-09-20T04:38:28;0.20;;;0.20;;
19927;SDS011;10126;50.876;4.470;2022-09-20T04:40:42;0.20;;;0.20;;
19927;SDS011;10126;50.876;4.470;2022-09-20T04:45:39;0.20;;;0.20;;
19927;SDS011;10126;50.876;4.470;2022-09-20T04:55:09;0.20;;;0.20;;
19927;SDS011;10126;50.876;4.470;2022-09-20T05:12:08;0.20;;;0.20;;
19927;SDS011;10126;50.876;4.470;2022-09-20T05:14:33;0.30;;;0.30;;
19927;SDS011;10126;50.876;4.470;2022-09-20T05:19:12;0.20;;;0.20;;
19927;SDS011;10126;50.876;4.470;2022-09-20T05:22:48;0.30;;;0.30;;
19927;SDS011;10126;50.876;4.470;2022-09-20T05:24:24;0.27;;;0.27;;
19927;SDS011;10126;50.876;4.470;2022-09-20T05:31:21;0.30;;;0.30;;
19927;SDS011;10126;50.876;4.470;2022-09-20T05:33:36;0.20;;;0.20;;
19927;SDS011;10126;50.876;4.470;2022-09-20T05:38:07;0.30;;;0.30;;
19927;SDS011;10126;50.876;4.470;2022-09-20T05:42:57;0.30;;;0.30;;
19927;SDS011;10126;50.876;4.470;2022-09-20T05:47:38;0.27;;;0.27;;
19927;SDS011;10126;50.876;4.470;2022-09-20T05:49:58;0.20;;;0.20;;
19927;SDS011;10126;50.876;4.470;2022-09-20T05:59:28;0.20;;;0.20;;
19927;SDS011;10126;50.876;4.470;2022-09-20T06:16:39;0.20;;;0.20;;
19927;SDS011;10126;50.876;4.470;2022-09-20T06:18:56;0.10;;;0.10;;
19927;SDS011;10126;50.876;4.470;2022-09-20T06:23:38;0.10;;;0.10;;
19927;SDS011;10126;50.876;4.470;2022-09-20T06:26:22;0.10;;;0.10;;
19927;SDS011;10126;50.876;4.470;2022-09-20T06:28:25;0.10;;;0.10;;
19927;SDS011;10126;50.876;4.470;2022-09-20T06:30:49;0.10;;;0.10;;
19927;SDS011;10126;50.876;4.470;2022-09-20T06:32:55;0.10;;;0.10;;
19927;SDS011;10126;50.876;4.470;2022-09-20T06:35:05;0.10;;;0.10;;
19927;SDS011;10126;50.876;4.470;2022-09-20T06:42:06;0.10;;;0.10;;
19927;SDS011;10126;50.876;4.470;2022-09-20T06:44:09;0.10;;;0.10;;
19927;SDS011;10126;50.876;4.470;2022-09-20T06:46:09;0.00;;;0.00;;
19927;SDS011;10126;50.876;4.470;2022-09-20T06:48:10;0.10;;;0.10;;
19927;SDS011;10126;50.876;4.470;2022-09-20T06:50:15;0.10;;;0.10;;
19927;SDS011;10126;50.876;4.470;2022-09-20T06:52:17;0.10;;;0.10;;
19927;SDS011;10126;50.876;4.470;2022-09-20T06:54:19;0.10;;;0.10;;
19927;SDS011;10126;50.876;4.470;2022-09-20T06:56:21;0.10;;;0.10;;
19927;SDS011;10126;50.876;4.470;2022-09-20T06:58:25;0.00;;;0.00;;
19927;SDS011;10126;50.876;4.470;2022-09-20T07:00:26;0.10;;;0.10;;
19927;SDS011;10126;50.876;4.470;2022-09-20T07:02:26;0.00;;;0.00;;
19927;SDS011;10126;50.876;4.470;2022-09-20T07:04:27;0.10;;;0.10;;
19927;SDS011;10126;50.876;4.470;2022-09-20T07:06:28;0.10;;;0.10;;
19927;SDS011;10126;50.876;4.470;2022-09-20T07:08:28;0.00;;;0.00;;
19927;SDS011;10126;50.876;4.470;2022-09-20T07:10:29;0.00;;;0.00;;
19927;SDS011;10126;50.876;4.470;2022-09-20T07:12:30;0.10;;;0.10;;
19927;SDS011;10126;50.876;4.470;2022-09-20T07:14:33;0.10;;;0.10;;
19927;SDS011;10126;50.876;4.470;2022-09-20T07:16:33;0.10;;;0.10;;
19927;SDS011;10126;50.876;4.470;2022-09-20T07:18:35;0.00;;;0.00;;
19927;SDS011;10126;50.876;4.470;2022-09-20T07:20:36;0.10;;;0.10;;
19927;SDS011;10126;50.876;4.470;2022-09-20T07:22:37;0.00;;;0.00;;
19927;SDS011;10126;50.876;4.470;2022-09-20T07:24:37;0.10;;;0.10;;
19927;SDS011;10126;50.876;4.470;2022-09-20T07:26:39;0.10;;;0.10;;
19927;SDS011;10126;50.876;4.470;2022-09-20T07:28:53;0.10;;;0.10;;
19927;SDS011;10126;50.876;4.470;2022-09-20T07:30:55;0.00;;;0.00;;
19927;SDS011;10126;50.876;4.470;2022-09-20T07:32:56;0.10;;;0.10;;
19927;SDS011;10126;50.876;4.470;2022-09-20T07:34:56;0.10;;;0.10;;
19927;SDS011;10126;50.876;4.470;2022-09-20T07:36:57;0.00;;;0.00;;
19927;SDS011;10126;50.876;4.470;2022-09-20T07:38:58;0.00;;;0.00;;
19927;SDS011;10126;50.876;4.470;2022-09-20T07:41:00;0.10;;;0.10;;
19927;SDS011;10126;50.876;4.470;2022-09-20T07:43:01;0.10;;;0.10;;
19927;SDS011;10126;50.876;4.470;2022-09-20T07:45:02;0.10;;;0.10;;
19927;SDS011;10126;50.876;4.470;2022-09-20T07:47:03;0.10;;;0.10;;
19927;SDS011;10126;50.876;4.470;2022-09-20T07:49:05;0.10;;;0.10;;
19927;SDS011;10126;50.876;4.470;2022-09-20T07:51:06;0.10;;;0.10;;
19927;SDS011;10126;50.876;4.470;2022-09-20T07:53:09;0.00;;;0.00;;
19927;SDS011;10126;50.876;4.470;2022-09-20T07:55:11;0.10;;;0.10;;
19927;SDS011;10126;50.876;4.470;2022-09-20T07:57:12;0.10;;;0.10;;
19927;SDS011;10126;50.876;4.470;2022-09-20T07:59:12;0.00;;;0.00;;
19927;SDS011;10126;50.876;4.470;2022-09-20T08:01:13;0.10;;;0.10;;
19927;SDS011;10126;50.876;4.470;2022-09-20T08:03:14;0.10;;;0.10;;
19927;SDS011;10126;50.876;4.470;2022-09-20T08:05:15;0.10;;;0.10;;
19927;SDS011;10126;50.876;4.470;2022-09-20T08:07:16;0.10;;;0.10;;
19927;SDS011;10126;50.876;4.470;2022-09-20T08:09:17;0.10;;;0.10;;
19927;SDS011;10126;50.876;4.470;2022-09-20T08:11:19;0.10;;;0.10;;
19927;SDS011;10126;50.876;4.470;2022-09-20T08:13:24;0.10;;;0.10;;
19927;SDS011;10126;50.876;4.470;2022-09-20T08:15:24;0.10;;;0.10;;
19927;SDS011;10126;50.876;4.470;2022-09-20T08:17:25;0.10;;;0.10;;
19927;SDS011;10126;50.876;4.470;2022-09-20T08:19:26;0.10;;;0.10;;
19927;SDS011;10126;50.876;4.470;2022-09-20T08:21:30;0.10;;;0.10;;
19927;SDS011;10126;50.876;4.470;2022-09-20T08:23:34;0.10;;;0.10;;
19927;SDS011;10126;50.876;4.470;2022-09-20T08:25:39;0.20;;;0.10;;
19927;SDS011;10126;50.876;4.470;2022-09-20T08:27:39;0.10;;;0.10;;
19927;SDS011;10126;50.876;4.470;2022-09-20T08:29:40;0.10;;;0.10;;
19927;SDS011;10126;50.876;4.470;2022-09-20T08:31:41;0.10;;;0.10;;
19927;SDS011;10126;50.876;4.470;2022-09-20T08:33:42;0.10;;;0.10;;
19927;SDS011;10126;50.876;4.470;2022-09-20T08:35:46;0.20;;;0.20;;
19927;SDS011;10126;50.876;4.470;2022-09-20T08:37:47;0.23;;;0.20;;
19927;SDS011;10126;50.876;4.470;2022-09-20T08:39:52;0.10;;;0.10;;
19927;SDS011;10126;50.876;4.470;2022-09-20T08:44:31;0.10;;;0.10;;
19927;SDS011;10126;50.876;4.470;2022-09-20T08:46:36;0.20;;;0.20;;
19927;SDS011;10126;50.876;4.470;2022-09-20T08:48:40;0.20;;;0.20;;
19927;SDS011;10126;50.876;4.470;2022-09-20T08:50:41;0.10;;;0.10;;
19927;SDS011;10126;50.876;4.470;2022-09-20T08:52:43;0.10;;;0.10;;
19927;SDS011;10126;50.876;4.470;2022-09-20T08:54:47;0.10;;;0.10;;
19927;SDS011;10126;50.876;4.470;2022-09-20T08:56:48;0.10;;;0.10;;
19927;SDS011;10126;50.876;4.470;2022-09-20T08:58:50;0.10;;;0.10;;
19927;SDS011;10126;50.876;4.470;2022-09-20T09:00:52;0.20;;;0.20;;
19927;SDS011;10126;50.876;4.470;2022-09-20T09:02:56;0.10;;;0.10;;
19927;SDS011;10126;50.876;4.470;2022-09-20T09:04:59;0.10;;;0.10;;
19927;SDS011;10126;50.876;4.470;2022-09-20T09:07:02;0.10;;;0.10;;
19927;SDS011;10126;50.876;4.470;2022-09-20T09:09:03;0.10;;;0.10;;
19927;SDS011;10126;50.876;4.470;2022-09-20T09:11:05;0.10;;;0.10;;
19927;SDS011;10126;50.876;4.470;2022-09-20T09:13:17;0.10;;;0.10;;
19927;SDS011;10126;50.876;4.470;2022-09-20T09:15:38;0.10;;;0.10;;
19927;SDS011;10126;50.876;4.470;2022-09-20T09:17:52;0.10;;;0.10;;
19927;SDS011;10126;50.876;4.470;2022-09-20T09:22:00;0.10;;;0.10;;
19927;SDS011;10126;50.876;4.470;2022-09-20T09:24:04;0.10;;;0.10;;
19927;SDS011;10126;50.876;4.470;2022-09-20T09:26:22;0.10;;;0.10;;
19927;SDS011;10126;50.876;4.470;2022-09-20T09:28:24;0.10;;;0.10;;
19927;SDS011;10126;50.876;4.470;2022-09-20T09:30:32;0.10;;;0.10;;
19927;SDS011;10126;50.876;4.470;2022-09-20T09:32:39;0.10;;;0.10;;
19927;SDS011;10126;50.876;4.470;2022-09-20T09:34:40;0.20;;;0.20;;
19927;SDS011;10126;50.876;4.470;2022-09-20T09:36:43;0.20;;;0.20;;
19927;SDS011;10126;50.876;4.470;2022-09-20T09:38:44;0.10;;;0.10;;
19927;SDS011;10126;50.876;4.470;2022-09-20T09:41:02;0.10;;;0.10;;
19927;SDS011;10126;50.876;4.470;2022-09-20T09:43:04;0.10;;;0.10;;
19927;SDS011;10126;50.876;4.470;2022-09-20T09:45:09;0.10;;;0.10;;
19927;SDS011;10126;50.876;4.470;2022-09-20T09:47:20;0.10;;;0.10;;
19927;SDS011;10126;50.876;4.470;2022-09-20T09:49:27;0.10;;;0.10;;
19927;SDS011;10126;50.876;4.470;2022-09-20T09:51:33;0.10;;;0.10;;
19927;SDS011;10126;50.876;4.470;2022-09-20T09:53:35;0.10;;;0.10;;
19927;SDS011;10126;50.876;4.470;2022-09-20T09:55:42;0.10;;;0.10;;
19927;SDS011;10126;50.876;4.470;2022-09-20T10:12:01;0.10;;;0.10;;
19927;SDS011;10126;50.876;4.470;2022-09-20T10:21:05;0.10;;;0.10;;
19927;SDS011;10126;50.876;4.470;2022-09-20T10:23:26;0.10;;;0.10;;
19927;SDS011;10126;50.876;4.470;2022-09-20T10:25:44;0.10;;;0.10;;
19927;SDS011;10126;50.876;4.470;2022-09-20T10:30:41;0.10;;;0.10;;
19927;SDS011;10126;50.876;4.470;2022-09-20T10:40:07;0.10;;;0.10;;
19927;SDS011;10126;50.876;4.470;2022-09-20T10:42:23;0.20;;;0.10;;
19927;SDS011;10126;50.876;4.470;2022-09-20T10:45:18;0.10;;;0.10;;
19927;SDS011;10126;50.876;4.470;2022-09-20T10:48:17;0.13;;;0.13;;
19927;SDS011;10126;50.876;4.470;2022-09-20T10:54:38;0.10;;;0.10;;
19927;SDS011;10126;50.876;4.470;2022-09-20T10:56:46;0.10;;;0.10;;
19927;SDS011;10126;50.876;4.470;2022-09-20T10:59:00;0.10;;;0.10;;
19927;SDS011;10126;50.876;4.470;2022-09-20T11:01:50;0.10;;;0.10;;
19927;SDS011;10126;50.876;4.470;2022-09-20T11:08:16;0.10;;;0.10;;
19927;SDS011;10126;50.876;4.470;2022-09-20T11:10:24;0.10;;;0.10;;
19927;SDS011;10126;50.876;4.470;2022-09-20T11:12:36;0.10;;;0.10;;
19927;SDS011;10126;50.876;4.470;2022-09-20T11:14:54;0.10;;;0.10;;
19927;SDS011;10126;50.876;4.470;2022-09-20T11:17:04;0.10;;;0.10;;
19927;SDS011;10126;50.876;4.470;2022-09-20T11:21:30;0.10;;;0.10;;
19927;SDS011;10126;50.876;4.470;2022-09-20T11:23:51;0.10;;;0.10;;
19927;SDS011;10126;50.876;4.470;2022-09-20T11:26:52;0.10;;;0.10;;
19927;SDS011;10126;50.876;4.470;2022-09-20T11:31:38;0.17;;;0.17;;
19927;SDS011;10126;50.876;4.470;2022-09-20T11:33:50;0.10;;;0.10;;
19927;SDS011;10126;50.876;4.470;2022-09-20T11:36:21;0.10;;;0.10;;
19927;SDS011;10126;50.876;4.470;2022-09-20T11:38:32;0.10;;;0.10;;
19927;SDS011;10126;50.876;4.470;2022-09-20T11:40:44;0.10;;;0.10;;
19927;SDS011;10126;50.876;4.470;2022-09-20T11:42:55;0.10;;;0.10;;
19927;SDS011;10126;50.876;4.470;2022-09-20T11:44:58;0.10;;;0.10;;
19927;SDS011;10126;50.876;4.470;2022-09-20T11:49:04;0.10;;;0.10;;
19927;SDS011;10126;50.876;4.470;2022-09-20T11:53:54;0.17;;;0.17;;
19927;SDS011;10126;50.876;4.470;2022-09-20T11:56:16;0.20;;;0.20;;
19927;SDS011;10126;50.876;4.470;2022-09-20T11:58:21;0.10;;;0.10;;
19927;SDS011;10126;50.876;4.470;2022-09-20T12:00:27;0.20;;;0.20;;
19927;SDS011;10126;50.876;4.470;2022-09-20T12:04:51;0.10;;;0.10;;
19927;SDS011;10126;50.876;4.470;2022-09-20T12:09:27;0.10;;;0.10;;
19927;SDS011;10126;50.876;4.470;2022-09-20T12:11:36;0.10;;;0.10;;
19927;SDS011;10126;50.876;4.470;2022-09-20T12:13:40;0.10;;;0.10;;
19927;SDS011;10126;50.876;4.470;2022-09-20T12:16:01;0.10;;;0.10;;
19927;SDS011;10126;50.876;4.470;2022-09-20T12:22:52;0.10;;;0.10;;
19927;SDS011;10126;50.876;4.470;2022-09-20T12:25:35;0.10;;;0.10;;
19927;SDS011;10126;50.876;4.470;2022-09-20T12:31:50;0.10;;;0.10;;
19927;SDS011;10126;50.876;4.470;2022-09-20T12:36:13;0.10;;;0.10;;
19927;SDS011;10126;50.876;4.470;2022-09-20T12:40:19;0.00;;;0.00;;
19927;SDS011;10126;50.876;4.470;2022-09-20T12:42:31;0.10;;;0.10;;
19927;SDS011;10126;50.876;4.470;2022-09-20T12:51:49;0.10;;;0.10;;
19927;SDS011;10126;50.876;4.470;2022-09-20T12:54:09;0.10;;;0.10;;
19927;SDS011;10126;50.876;4.470;2022-09-20T12:56:12;0.10;;;0.10;;
19927;SDS011;10126;50.876;4.470;2022-09-20T12:58:23;0.10;;;0.10;;
19927;SDS011;10126;50.876;4.470;2022-09-20T13:00:30;0.10;;;0.10;;
19927;SDS011;10126;50.876;4.470;2022-09-20T13:02:42;0.10;;;0.10;;
19927;SDS011;10126;50.876;4.470;2022-09-20T13:04:54;0.10;;;0.10;;
19927;SDS011;10126;50.876;4.470;2022-09-20T13:09:32;0.10;;;0.10;;
19927;SDS011;10126;50.876;4.470;2022-09-20T13:15:56;0.10;;;0.10;;
19927;SDS011;10126;50.876;4.470;2022-09-20T13:17:59;0.10;;;0.10;;
19927;SDS011;10126;50.876;4.470;2022-09-20T13:20:01;0.10;;;0.10;;
19927;SDS011;10126;50.876;4.470;2022-09-20T13:22:05;0.10;;;0.10;;
19927;SDS011;10126;50.876;4.470;2022-09-20T13:24:11;0.10;;;0.10;;
19927;SDS011;10126;50.876;4.470;2022-09-20T13:26:18;0.10;;;0.10;;
19927;SDS011;10126;50.876;4.470;2022-09-20T13:28:30;0.10;;;0.10;;
19927;SDS011;10126;50.876;4.470;2022-09-20T13:30:33;0.10;;;0.10;;
19927;SDS011;10126;50.876;4.470;2022-09-20T13:32:34;0.10;;;0.10;;
19927;SDS011;10126;50.876;4.470;2022-09-20T13:34:40;0.10;;;0.10;;
19927;SDS011;10126;50.876;4.470;2022-09-20T13:36:41;0.10;;;0.10;;
19927;SDS011;10126;50.876;4.470;2022-09-20T13:38:42;0.10;;;0.10;;
19927;SDS011;10126;50.876;4.470;2022-09-20T13:40:45;0.10;;;0.10;;
19927;SDS011;10126;50.876;4.470;2022-09-20T13:42:49;0.00;;;0.00;;
19927;SDS011;10126;50.876;4.470;2022-09-20T13:44:51;0.10;;;0.10;;
19927;SDS011;10126;50.876;4.470;2022-09-20T13:46:52;0.10;;;0.10;;
19927;SDS011;10126;50.876;4.470;2022-09-20T13:48:57;0.10;;;0.10;;
19927;SDS011;10126;50.876;4.470;2022-09-20T13:51:18;0.10;;;0.10;;
19927;SDS011;10126;50.876;4.470;2022-09-20T13:53:27;0.00;;;0.00;;
19927;SDS011;10126;50.876;4.470;2022-09-20T13:55:35;0.10;;;0.10;;
19927;SDS011;10126;50.876;4.470;2022-09-20T13:57:37;0.10;;;0.10;;
19927;SDS011;10126;50.876;4.470;2022-09-20T13:59:43;0.10;;;0.10;;
19927;SDS011;10126;50.876;4.470;2022-09-20T14:01:49;0.10;;;0.10;;
19927;SDS011;10126;50.876;4.470;2022-09-20T14:03:52;0.10;;;0.10;;
19927;SDS011;10126;50.876;4.470;2022-09-20T14:06:00;0.10;;;0.10;;
19927;SDS011;10126;50.876;4.470;2022-09-20T14:08:04;0.10;;;0.10;;
19927;SDS011;10126;50.876;4.470;2022-09-20T14:10:24;0.10;;;0.10;;
19927;SDS011;10126;50.876;4.470;2022-09-20T14:12:26;0.10;;;0.10;;
19927;SDS011;10126;50.876;4.470;2022-09-20T14:14:27;0.10;;;0.10;;
19927;SDS011;10126;50.876;4.470;2022-09-20T14:16:29;0.07;;;0.07;;
19927;SDS011;10126;50.876;4.470;2022-09-20T14:18:32;0.10;;;0.10;;
19927;SDS011;10126;50.876;4.470;2022-09-20T14:20:34;0.10;;;0.10;;
19927;SDS011;10126;50.876;4.470;2022-09-20T14:22:35;0.10;;;0.10;;
19927;SDS011;10126;50.876;4.470;2022-09-20T14:24:36;0.10;;;0.10;;
19927;SDS011;10126;50.876;4.470;2022-09-20T14:26:37;0.10;;;0.10;;
19927;SDS011;10126;50.876;4.470;2022-09-20T14:28:42;0.10;;;0.10;;
19927;SDS011;10126;50.876;4.470;2022-09-20T14:30:44;0.10;;;0.10;;
19927;SDS011;10126;50.876;4.470;2022-09-20T14:32:49;0.10;;;0.10;;
19927;SDS011;10126;50.876;4.470;2022-09-20T14:35:00;0.10;;;0.10;;
19927;SDS011;10126;50.876;4.470;2022-09-20T14:37:05;0.10;;;0.10;;
19927;SDS011;10126;50.876;4.470;2022-09-20T14:39:17;0.00;;;0.00;;
19927;SDS011;10126;50.876;4.470;2022-09-20T14:41:31;0.10;;;0.10;;
19927;SDS011;10126;50.876;4.470;2022-09-20T14:43:34;0.10;;;0.10;;
19927;SDS011;10126;50.876;4.470;2022-09-20T14:45:36;0.10;;;0.10;;
19927;SDS011;10126;50.876;4.470;2022-09-20T14:47:48;0.10;;;0.10;;
19927;SDS011;10126;50.876;4.470;2022-09-20T14:50:03;0.10;;;0.10;;
19927;SDS011;10126;50.876;4.470;2022-09-20T14:54:26;0.10;;;0.10;;
19927;SDS011;10126;50.876;4.470;2022-09-20T14:56:33;0.10;;;0.10;;
19927;SDS011;10126;50.876;4.470;2022-09-20T15:01:18;0.10;;;0.10;;
19927;SDS011;10126;50.876;4.470;2022-09-20T15:03:24;0.20;;;0.20;;
19927;SDS011;10126;50.876;4.470;2022-09-20T15:05:39;0.10;;;0.10;;
19927;SDS011;10126;50.876;4.470;2022-09-20T15:07:41;0.10;;;0.10;;
19927;SDS011;10126;50.876;4.470;2022-09-20T15:09:42;0.10;;;0.10;;
19927;SDS011;10126;50.876;4.470;2022-09-20T15:11:42;0.10;;;0.10;;
19927;SDS011;10126;50.876;4.470;2022-09-20T15:13:43;0.10;;;0.10;;
19927;SDS011;10126;50.876;4.470;2022-09-20T15:15:46;0.10;;;0.10;;
19927;SDS011;10126;50.876;4.470;2022-09-20T15:17:49;0.10;;;0.10;;
19927;SDS011;10126;50.876;4.470;2022-09-20T15:19:50;0.10;;;0.10;;
19927;SDS011;10126;50.876;4.470;2022-09-20T15:21:51;0.10;;;0.10;;
19927;SDS011;10126;50.876;4.470;2022-09-20T15:23:52;0.10;;;0.10;;
19927;SDS011;10126;50.876;4.470;2022-09-20T15:25:53;0.10;;;0.10;;
19927;SDS011;10126;50.876;4.470;2022-09-20T15:27:54;0.10;;;0.10;;
19927;SDS011;10126;50.876;4.470;2022-09-20T15:29:56;0.10;;;0.10;;
19927;SDS011;10126;50.876;4.470;2022-09-20T15:31:57;0.10;;;0.10;;
19927;SDS011;10126;50.876;4.470;2022-09-20T15:33:58;0.10;;;0.10;;
19927;SDS011;10126;50.876;4.470;2022-09-20T15:36:00;0.10;;;0.10;;
19927;SDS011;10126;50.876;4.470;2022-09-20T15:38:01;0.10;;;0.10;;
19927;SDS011;10126;50.876;4.470;2022-09-20T15:40:03;0.10;;;0.10;;
19927;SDS011;10126;50.876;4.470;2022-09-20T15:42:04;0.10;;;0.10;;
19927;SDS011;10126;50.876;4.470;2022-09-20T15:44:06;0.10;;;0.10;;
19927;SDS011;10126;50.876;4.470;2022-09-20T15:46:40;0.10;;;0.10;;
19927;SDS011;10126;50.876;4.470;2022-09-20T15:48:34;0.10;;;0.10;;
19927;SDS011;10126;50.876;4.470;2022-09-20T15:50:37;0.10;;;0.10;;
19927;SDS011;10126;50.876;4.470;2022-09-20T15:52:38;0.10;;;0.10;;
19927;SDS011;10126;50.876;4.470;2022-09-20T15:54:40;0.10;;;0.10;;
19927;SDS011;10126;50.876;4.470;2022-09-20T15:56:41;0.10;;;0.10;;
19927;SDS011;10126;50.876;4.470;2022-09-20T15:58:45;0.10;;;0.10;;
19927;SDS011;10126;50.876;4.470;2022-09-20T16:00:50;0.10;;;0.10;;
19927;SDS011;10126;50.876;4.470;2022-09-20T16:02:50;0.10;;;0.10;;
19927;SDS011;10126;50.876;4.470;2022-09-20T16:04:51;0.10;;;0.10;;
19927;SDS011;10126;50.876;4.470;2022-09-20T16:06:54;0.10;;;0.10;;
19927;SDS011;10126;50.876;4.470;2022-09-20T16:08:55;0.10;;;0.10;;
19927;SDS011;10126;50.876;4.470;2022-09-20T16:10:56;0.10;;;0.10;;
19927;SDS011;10126;50.876;4.470;2022-09-20T16:12:58;0.20;;;0.20;;
19927;SDS011;10126;50.876;4.470;2022-09-20T16:14:58;0.10;;;0.10;;
19927;SDS011;10126;50.876;4.470;2022-09-20T16:16:59;0.10;;;0.10;;
19927;SDS011;10126;50.876;4.470;2022-09-20T16:18:59;0.10;;;0.10;;
19927;SDS011;10126;50.876;4.470;2022-09-20T16:21:19;0.10;;;0.10;;
19927;SDS011;10126;50.876;4.470;2022-09-20T16:23:20;0.10;;;0.10;;
19927;SDS011;10126;50.876;4.470;2022-09-20T16:25:21;0.10;;;0.10;;
19927;SDS011;10126;50.876;4.470;2022-09-20T16:27:22;0.10;;;0.10;;
19927;SDS011;10126;50.876;4.470;2022-09-20T16:29:23;0.20;;;0.20;;
19927;SDS011;10126;50.876;4.470;2022-09-20T16:31:28;0.20;;;0.20;;
19927;SDS011;10126;50.876;4.470;2022-09-20T16:33:32;0.20;;;0.20;;
19927;SDS011;10126;50.876;4.470;2022-09-20T16:35:34;0.10;;;0.10;;
19927;SDS011;10126;50.876;4.470;2022-09-20T16:37:34;0.10;;;0.10;;
19927;SDS011;10126;50.876;4.470;2022-09-20T16:39:36;0.20;;;0.20;;
19927;SDS011;10126;50.876;4.470;2022-09-20T16:41:36;0.10;;;0.10;;
19927;SDS011;10126;50.876;4.470;2022-09-20T16:43:38;0.20;;;0.20;;
19927;SDS011;10126;50.876;4.470;2022-09-20T16:45:40;0.10;;;0.10;;
19927;SDS011;10126;50.876;4.470;2022-09-20T16:47:41;0.20;;;0.20;;
19927;SDS011;10126;50.876;4.470;2022-09-20T16:49:42;0.20;;;0.20;;
19927;SDS011;10126;50.876;4.470;2022-09-20T16:51:43;0.10;;;0.10;;
19927;SDS011;10126;50.876;4.470;2022-09-20T16:53:45;0.10;;;0.10;;
19927;SDS011;10126;50.876;4.470;2022-09-20T16:55:46;0.10;;;0.10;;
19927;SDS011;10126;50.876;4.470;2022-09-20T16:57:48;0.10;;;0.10;;
19927;SDS011;10126;50.876;4.470;2022-09-20T16:59:49;0.10;;;0.10;;
19927;SDS011;10126;50.876;4.470;2022-09-20T17:01:53;0.17;;;0.17;;
19927;SDS011;10126;50.876;4.470;2022-09-20T17:03:54;0.20;;;0.20;;
19927;SDS011;10126;50.876;4.470;2022-09-20T17:06:05;0.13;;;0.13;;
19927;SDS011;10126;50.876;4.470;2022-09-20T17:08:07;0.20;;;0.20;;
19927;SDS011;10126;50.876;4.470;2022-09-20T17:10:09;0.10;;;0.10;;
19927;SDS011;10126;50.876;4.470;2022-09-20T17:12:10;0.10;;;0.10;;
19927;SDS011;10126;50.876;4.470;2022-09-20T17:14:13;0.20;;;0.20;;
19927;SDS011;10126;50.876;4.470;2022-09-20T17:16:17;0.10;;;0.10;;
19927;SDS011;10126;50.876;4.470;2022-09-20T17:18:20;0.20;;;0.20;;
19927;SDS011;10126;50.876;4.470;2022-09-20T17:20:20;0.20;;;0.20;;
19927;SDS011;10126;50.876;4.470;2022-09-20T17:22:24;0.20;;;0.20;;
19927;SDS011;10126;50.876;4.470;2022-09-20T17:24:25;0.20;;;0.20;;